Time;durP1;ratioP1;P1;durP2;ratioP2;P2;SDS_P1;SDS_P2;PMS_P1;PMS_P2;Temp;Humidity;BMP_temperature;BMP_pressure;BME280_temperature;BME280_humidity;BME280_pressure;Samples;Min_cycle;Max_cycle;Signal;HPM_P1;HPM_P2
2021/12/22 00:02:55;;;;;;;2.88;2.22;;;;;;;-3.58;100.00;102494.94;6249452;28;20050;-76
2021/12/22 00:05:57;;;;;;;3.78;2.75;;;;;;;-3.62;100.00;102489.63;6249233;28;20052;-76
2021/12/22 00:08:59;;;;;;;2.47;1.75;;;;;;;-3.60;100.00;102493.13;6249386;28;20054;-75
2021/12/22 00:12:00;;;;;;;3.50;2.28;;;;;;;-3.60;100.00;102488.84;6248992;28;20088;-76
2021/12/22 00:15:03;;;;;;;3.72;2.45;;;;;;;-3.60;100.00;102490.53;6249284;28;20053;-76
2021/12/22 00:18:05;;;;;;;5.47;2.85;;;;;;;-3.60;100.00;102498.25;6248580;28;20049;-76
2021/12/22 00:21:06;;;;;;;2.97;1.80;;;;;;;-3.62;100.00;102489.63;6248371;28;20049;-76
2021/12/22 00:24:08;;;;;;;4.43;2.03;;;;;;;-3.66;100.00;102485.22;6248565;28;20056;-76
2021/12/22 00:27:09;;;;;;;4.38;1.48;;;;;;;-3.72;100.00;102480.75;6248647;28;20049;-76
2021/12/22 00:30:12;;;;;;;2.58;1.85;;;;;;;-3.86;100.00;102481.97;6248544;28;20060;-76
2021/12/22 00:33:13;;;;;;;4.32;1.92;;;;;;;-3.87;100.00;102485.38;6248166;28;20046;-76
2021/12/22 00:36:17;;;;;;;4.40;2.25;;;;;;;-3.83;100.00;102485.50;6248408;28;20100;-76
2021/12/22 00:39:18;;;;;;;2.22;1.63;;;;;;;-3.92;100.00;102482.63;6248963;28;20056;-76
2021/12/22 00:42:21;;;;;;;3.42;1.33;;;;;;;-3.90;100.00;102485.28;6248644;28;20060;-75
2021/12/22 00:45:25;;;;;;;2.92;2.08;;;;;;;-3.86;100.00;102490.56;6248536;28;20054;-76
2021/12/22 00:48:26;;;;;;;3.10;1.88;;;;;;;-3.82;100.00;102492.41;6248433;28;20586;-75
2021/12/22 00:51:28;;;;;;;3.80;2.20;;;;;;;-3.89;100.00;102484.44;6248257;28;20049;-76
2021/12/22 00:54:29;;;;;;;3.05;2.30;;;;;;;-3.87;100.00;102483.66;6248604;28;20057;-76
2021/12/22 00:57:32;;;;;;;1.98;1.40;;;;;;;-3.82;100.00;102486.38;6248410;28;20049;-75
2021/12/22 01:00:35;;;;;;;3.45;2.28;;;;;;;-3.87;100.00;102483.66;6248166;28;20053;-76
2021/12/22 01:03:36;;;;;;;3.80;1.40;;;;;;;-3.86;100.00;102484.53;6248050;28;20096;-76
2021/12/22 01:06:38;;;;;;;4.28;2.47;;;;;;;-3.86;100.00;102489.66;6247990;28;20449;-75
2021/12/22 01:09:39;;;;;;;2.00;1.70;;;;;;;-3.85;100.00;102488.88;6248117;28;20049;-76
2021/12/22 01:12:41;;;;;;;4.47;2.05;;;;;;;-3.84;100.00;102491.47;6247820;28;20489;-76
2021/12/22 01:15:44;;;;;;;4.63;2.75;;;;;;;-3.83;100.00;102494.91;6247941;28;20046;-76
2021/12/22 01:18:45;;;;;;;4.30;1.85;;;;;;;-3.85;100.00;102494.88;6247421;28;20053;-75
2021/12/22 01:21:50;;;;;;;2.55;2.13;;;;;;;-3.87;100.00;102506.78;6247744;28;20049;-76
2021/12/22 01:25:00;;;;;;;2.97;2.30;;;;;;;-3.89;100.00;102503.31;6247792;28;20060;-76
2021/12/22 01:28:01;;;;;;;3.25;1.95;;;;;;;-3.89;100.00;102500.72;6248094;28;20045;-76
2021/12/22 01:31:04;;;;;;;8.02;3.60;;;;;;;-3.90;100.00;102503.25;6247418;28;20057;-76
2021/12/22 01:34:05;;;;;;;1.45;1.23;;;;;;;-3.90;100.00;102503.25;6247688;28;20049;-76
2021/12/22 01:37:07;;;;;;;2.20;2.00;;;;;;;-3.93;100.00;102503.13;6247390;28;20493;-76
2021/12/22 01:40:10;;;;;;;3.42;1.98;;;;;;;-3.97;100.00;102509.84;6247066;28;20052;-76
2021/12/22 01:43:14;;;;;;;2.58;1.55;;;;;;;-4.00;100.00;102496.91;6247546;28;20184;-76
2021/12/22 01:49:09;;;;;;;3.25;2.25;;;;;;;-4.00;100.00;102504.59;6246695;28;20045;-76
2021/12/22 01:49:53;;;;;;;;;;;;;;;-3.96;100.00;102505.59;6246270;28;20497;-75
2021/12/22 01:52:54;;;;;;;2.40;1.98;;;;;;;-3.95;100.00;102515.03;6247456;28;19932;-76
2021/12/22 01:56:05;;;;;;;3.17;1.80;;;;;;;-4.00;100.00;102512.31;6247092;28;20053;-75
2021/12/22 01:59:08;;;;;;;4.03;1.65;;;;;;;-3.98;100.00;102512.38;6247513;28;20484;-76
2021/12/22 02:02:13;;;;;;;6.72;3.08;;;;;;;-3.96;100.00;102505.59;6246653;28;20060;-76
2021/12/22 02:05:15;;;;;;;4.95;2.30;;;;;;;-3.93;100.00;102514.28;6247274;28;20053;-75
2021/12/22 02:08:17;;;;;;;6.05;2.55;;;;;;;-3.97;100.00;102509.84;6246737;28;20072;-76
2021/12/22 02:11:19;;;;;;;4.40;2.38;;;;;;;-3.96;100.00;102514.16;6246555;28;20053;-75
2021/12/22 02:14:20;;;;;;;4.97;2.78;;;;;;;-4.00;100.00;102512.31;6246983;28;20049;-75
2021/12/22 02:17:26;;;;;;;3.72;2.22;;;;;;;-3.97;100.00;102506.41;6246164;28;20421;-75
2021/12/22 02:20:28;;;;;;;7.45;2.53;;;;;;;-4.03;100.00;102513.91;6246060;28;20536;-76
2021/12/22 02:23:30;;;;;;;5.22;3.00;;;;;;;-4.05;100.00;102513.84;6246369;28;20052;-76
2021/12/22 02:26:37;;;;;;;5.40;1.92;;;;;;;-4.01;100.00;102514.84;6246722;28;20489;-76
2021/12/22 02:29:40;;;;;;;6.95;1.83;;;;;;;-4.00;100.00;102509.75;6246550;28;20057;-76
2021/12/22 02:33:08;;;;;;;2.53;2.13;;;;;;;-4.05;100.00;102505.28;6246377;28;20045;-75
2021/12/22 02:36:21;;;;;;;6.07;2.50;;;;;;;-4.12;100.00;102501.63;6246181;28;20049;-76
2021/12/22 02:39:23;;;;;;;7.00;1.65;;;;;;;-4.12;100.00;102506.78;6246697;28;20056;-76
2021/12/22 02:42:26;;;;;;;3.53;2.03;;;;;;;-4.09;100.00;102504.28;6246271;28;20049;-75
2021/12/22 02:45:27;;;;;;;2.70;1.67;;;;;;;-4.06;100.00;102501.84;6246435;28;20045;-74
2021/12/22 02:48:30;;;;;;;5.75;3.85;;;;;;;-4.05;100.00;102497.56;6245825;28;20057;-74
2021/12/22 02:51:33;;;;;;;1.67;1.15;;;;;;;-4.11;100.00;102495.69;6246111;28;20057;-74
2021/12/22 02:54:41;;;;;;;4.53;2.25;;;;;;;-4.09;100.00;102497.50;6246121;28;20512;-75
2021/12/22 02:57:46;;;;;;;2.90;1.77;;;;;;;-4.03;100.00;102494.25;6248311;28;20053;-75
2021/12/22 03:01:04;;;;;;;7.28;2.97;;;;;;;-4.01;100.00;102497.72;6250695;28;20049;-75
2021/12/22 03:04:12;;;;;;;2.38;1.92;;;;;;;-4.03;100.00;102490.81;6250881;28;20053;-76
2021/12/22 03:07:17;;;;;;;3.75;2.58;;;;;;;-4.03;100.00;102494.25;6250691;28;20140;-75
2021/12/22 03:10:19;;;;;;;3.40;2.72;;;;;;;-4.00;100.00;102484.06;6250707;28;20053;-75
2021/12/22 03:13:21;;;;;;;3.50;1.85;;;;;;;-3.96;100.00;102491.06;6250537;28;20501;-75
2021/12/22 03:16:22;;;;;;;5.50;3.05;;;;;;;-4.02;100.00;102490.84;6226192;28;20069;-75
2021/12/22 03:19:26;;;;;;;3.50;2.35;;;;;;;-4.05;100.00;102477.91;6250289;28;20057;-74
2021/12/22 03:22:29;;;;;;;3.58;2.10;;;;;;;-4.07;100.00;102482.13;6250463;28;20052;-75
2021/12/22 03:25:30;;;;;;;5.15;2.45;;;;;;;-4.07;100.00;102477.00;6249469;28;20053;-75
2021/12/22 03:28:31;;;;;;;1.92;1.52;;;;;;;-4.12;100.00;102470.84;6249417;28;20049;-75
2021/12/22 03:31:33;;;;;;;3.40;2.10;;;;;;;-4.20;100.00;102467.13;6249945;28;20053;-75
2021/12/22 03:34:34;;;;;;;4.65;2.58;;;;;;;-4.24;100.00;102466.13;6249874;28;20049;-75
2021/12/22 03:37:37;;;;;;;4.38;3.00;;;;;;;-4.28;100.00;102474.53;6249949;28;20045;-75
2021/12/22 03:40:38;;;;;;;3.28;1.10;;;;;;;-4.30;100.00;102481.31;6249874;28;20056;-75
2021/12/22 03:43:40;;;;;;;5.93;2.92;;;;;;;-4.24;100.00;102473.84;6249947;28;20056;-75
2021/12/22 03:46:41;;;;;;;3.13;1.67;;;;;;;-4.20;100.00;102468.00;6249491;28;20053;-75
2021/12/22 03:49:43;;;;;;;3.13;1.98;;;;;;;-4.14;100.00;102478.47;6249899;28;20053;-74
2021/12/22 03:52:47;;;;;;;2.80;2.10;;;;;;;-4.20;100.00;102478.25;6249657;28;20405;-75
2021/12/22 03:55:49;;;;;;;5.35;2.60;;;;;;;-4.18;100.00;102473.16;6249347;28;20124;-74
2021/12/22 03:58:50;;;;;;;3.70;1.92;;;;;;;-4.20;100.00;102469.69;6249241;28;20417;-75
2021/12/22 04:01:53;;;;;;;5.00;2.42;;;;;;;-4.19;100.00;102469.72;6249169;28;20052;-75
2021/12/22 04:04:54;;;;;;;2.83;2.10;;;;;;;-4.19;100.00;102468.84;6249537;28;20049;-75
2021/12/22 04:07:57;;;;;;;2.13;1.67;;;;;;;-4.20;100.00;102460.28;6249225;28;20042;-75
2021/12/22 04:10:59;;;;;;;3.13;1.77;;;;;;;-4.23;100.00;102460.16;6248465;28;20053;-75
2021/12/22 04:14:01;;;;;;;5.63;1.98;;;;;;;-4.23;100.00;102464.44;6249312;28;20050;-76
2021/12/22 04:17:02;;;;;;;4.93;2.35;;;;;;;-4.24;100.00;102455.00;6249193;28;20054;-75
2021/12/22 04:20:04;;;;;;;7.15;2.30;;;;;;;-4.22;100.00;102459.38;6248264;28;20056;-75
2021/12/22 04:23:07;;;;;;;4.25;1.98;;;;;;;-4.25;100.00;102458.38;6248399;28;20057;-75
2021/12/22 04:26:12;;;;;;;6.97;2.60;;;;;;;-4.28;100.00;102458.28;6248618;28;20048;-75
2021/12/22 04:29:13;;;;;;;2.50;1.63;;;;;;;-4.36;100.00;102456.34;6248974;28;20421;-74
2021/12/22 04:32:15;;;;;;;2.10;1.45;;;;;;;-4.28;100.00;102464.28;6248221;28;20060;-75
2021/12/22 04:35:16;;;;;;;6.40;2.67;;;;;;;-4.23;100.00;102470.44;6248872;28;20045;-75
2021/12/22 04:38:21;;;;;;;5.28;2.53;;;;;;;-4.31;100.00;102466.75;6248556;28;20041;-76
2021/12/22 04:41:22;;;;;;;4.78;2.17;;;;;;;-4.30;100.00;102465.06;6248310;28;20429;-75
2021/12/22 04:44:24;;;;;;;4.07;2.33;;;;;;;-4.25;100.00;102466.09;6248626;28;20666;-75
2021/12/22 04:47:25;;;;;;;6.00;3.08;;;;;;;-4.21;100.00;102463.69;6247716;28;20060;-75
2021/12/22 04:50:26;;;;;;;3.70;2.30;;;;;;;-4.29;100.00;102461.66;6248092;28;20061;-75
2021/12/22 04:53:37;;;;;;;2.00;1.27;;;;;;;-4.29;100.00;102459.97;6248276;28;20678;-75
2021/12/22 04:56:39;;;;;;;2.15;1.45;;;;;;;-4.26;100.00;102460.09;6248338;28;20138;-75
2021/12/22 04:59:40;;;;;;;2.60;1.85;;;;;;;-4.21;100.00;102471.38;6248036;28;20054;-75
2021/12/22 05:02:42;;;;;;;6.80;3.00;;;;;;;-4.16;100.00;102474.09;6247673;28;20416;-75
2021/12/22 05:05:43;;;;;;;3.53;2.22;;;;;;;-4.13;100.00;102469.97;6247907;28;20056;-75
2021/12/22 05:08:46;;;;;;;2.38;1.02;;;;;;;-4.07;100.00;102468.41;6248208;28;20053;-75
2021/12/22 05:11:47;;;;;;;3.05;1.27;;;;;;;-4.04;100.00;102468.50;6247699;28;20045;-75
2021/12/22 05:14:50;;;;;;;3.15;2.40;;;;;;;-4.07;100.00;102460.72;6247484;28;20573;-75
2021/12/22 05:18:20;;;;;;;5.25;2.33;;;;;;;-4.09;100.00;102452.94;6247768;28;20042;-75
2021/12/22 05:21:22;;;;;;;1.52;1.13;;;;;;;-4.11;100.00;102459.72;6222090;28;20132;-75
2021/12/22 05:24:25;;;;;;;2.85;1.60;;;;;;;-4.17;100.00;102459.53;6222959;28;20199;-75
2021/12/22 05:27:27;;;;;;;5.47;2.47;;;;;;;-4.17;100.00;102462.97;6222982;28;20068;-75
2021/12/22 05:30:28;;;;;;;4.90;2.70;;;;;;;-4.14;100.00;102457.91;6222833;28;20053;-75
2021/12/22 05:33:29;;;;;;;7.15;2.05;;;;;;;-4.11;100.00;102463.16;6223170;28;20053;-75
2021/12/22 05:36:31;;;;;;;3.40;1.83;;;;;;;-4.14;100.00;102460.50;6222726;28;20049;-76
2021/12/22 05:39:34;;;;;;;3.80;1.98;;;;;;;-4.14;100.00;102451.91;6222825;28;20049;-75
2021/12/22 05:42:36;;;;;;;3.13;1.98;;;;;;;-4.22;100.00;102451.69;6222663;28;20060;-75
2021/12/22 05:45:37;;;;;;;4.22;2.40;;;;;;;-4.25;100.00;102454.13;6222407;28;20050;-75
2021/12/22 05:48:38;;;;;;;4.72;3.08;;;;;;;-4.29;100.00;102459.09;6224082;28;20068;-75
2021/12/22 05:51:40;;;;;;;5.18;3.05;;;;;;;-4.31;100.00;102458.16;6244393;28;20428;-75
2021/12/22 05:54:42;;;;;;;3.30;2.75;;;;;;;-4.29;100.00;102451.41;6244776;28;20048;-75
2021/12/22 05:57:44;;;;;;;5.40;3.33;;;;;;;-4.23;100.00;102456.72;6244395;28;20052;-75
2021/12/22 06:00:46;;;;;;;4.50;1.95;;;;;;;-4.24;100.00;102450.72;6252420;28;20049;-76
2021/12/22 06:03:47;;;;;;;7.60;2.03;;;;;;;-4.22;100.00;102451.69;6244971;28;20053;-75
2021/12/22 06:06:49;;;;;;;5.10;2.83;;;;;;;-4.29;100.00;102453.97;6247012;28;20492;-74
2021/12/22 06:09:51;;;;;;;3.80;2.28;;;;;;;-4.28;100.00;102455.72;6246618;28;20049;-74
2021/12/22 06:12:53;;;;;;;4.03;2.53;;;;;;;-4.23;100.00;102447.34;6245652;28;20523;-75
2021/12/22 06:15:54;;;;;;;4.00;2.88;;;;;;;-4.22;100.00;102445.69;6246517;28;20049;-75
2021/12/22 06:18:58;;;;;;;1.77;1.55;;;;;;;-4.18;100.00;102448.41;6245953;28;20997;-75
2021/12/22 06:22:00;;;;;;;4.05;2.38;;;;;;;-4.18;100.00;102448.41;6245258;28;20076;-75
2021/12/22 06:25:03;;;;;;;3.90;2.75;;;;;;;-4.16;100.00;102446.75;6246353;28;20054;-75
2021/12/22 06:28:05;;;;;;;8.00;3.10;;;;;;;-4.11;100.00;102452.03;6246218;28;20052;-75
2021/12/22 06:31:07;;;;;;;6.85;3.08;;;;;;;-4.06;100.00;102450.50;6246429;28;20057;-75
2021/12/22 06:34:08;;;;;;;1.52;1.42;;;;;;;-4.03;100.00;102439.47;6251103;28;20474;-75
2021/12/22 06:37:10;;;;;;;5.18;1.75;;;;;;;-4.03;100.00;102442.03;6251404;28;20045;-75
2021/12/22 06:40:13;;;;;;;3.70;2.17;;;;;;;-4.04;100.00;102441.16;6251162;28;20509;-74
2021/12/22 06:43:15;;;;;;;2.67;2.20;;;;;;;-4.08;100.00;102434.19;6251592;28;20054;-75
2021/12/22 06:46:17;;;;;;;6.88;3.65;;;;;;;-4.10;100.00;102443.50;6251096;28;20075;-75
2021/12/22 06:49:19;;;;;;;3.33;2.17;;;;;;;-4.10;100.00;102448.63;6251378;28;20053;-75
2021/12/22 06:52:20;;;;;;;6.38;2.67;;;;;;;-4.14;100.00;102442.53;6250595;28;20417;-75
2021/12/22 06:55:23;;;;;;;6.00;3.20;;;;;;;-4.17;100.00;102445.00;6251301;28;20085;-75
2021/12/22 06:58:24;;;;;;;3.30;2.45;;;;;;;-4.17;100.00;102439.88;6250885;28;20041;-75
2021/12/22 07:01:25;;;;;;;4.20;2.28;;;;;;;-4.17;100.00;102445.00;6251065;28;20053;-77
2021/12/22 07:04:27;;;;;;;2.20;1.17;;;;;;;-4.12;100.00;102440.91;6251073;28;20055;-75
2021/12/22 07:07:28;;;;;;;3.80;2.60;;;;;;;-4.13;100.00;102446.00;6251006;28;20049;-75
2021/12/22 07:10:31;;;;;;;6.95;3.35;;;;;;;-4.12;100.00;102445.16;6250605;28;20133;-75
2021/12/22 07:13:32;;;;;;;5.00;2.88;;;;;;;-4.09;100.00;102437.53;6250868;28;20053;-75
2021/12/22 07:16:34;;;;;;;8.73;2.65;;;;;;;-4.07;100.00;102446.19;6250525;28;20143;-75
2021/12/22 07:19:35;;;;;;;4.20;2.80;;;;;;;-4.11;100.00;102454.59;6248754;28;20046;-75
2021/12/22 07:22:37;;;;;;;2.00;1.55;;;;;;;-4.18;100.00;102453.53;6251272;28;20060;-75
2021/12/22 07:25:40;;;;;;;2.92;2.00;;;;;;;-4.19;100.00;102462.03;6250356;28;20049;-75
2021/12/22 07:28:42;;;;;;;4.55;2.47;;;;;;;-4.17;100.00;102460.41;6250516;28;20046;-75
2021/12/22 07:31:43;;;;;;;3.42;1.45;;;;;;;-4.16;100.00;102459.56;6250077;28;20053;-75
2021/12/22 07:34:52;;;;;;;3.78;2.92;;;;;;;-4.14;100.00;102452.78;6250441;28;20432;-75
2021/12/22 07:38:01;;;;;;;5.70;3.45;;;;;;;-4.11;100.00;102459.72;6250039;28;20052;-75
2021/12/22 07:41:06;;;;;;;4.68;2.67;;;;;;;-4.12;100.00;102458.88;6249539;28;20049;-75
2021/12/22 07:44:07;;;;;;;3.72;1.63;;;;;;;-4.12;100.00;102458.88;6251197;28;20057;-75
2021/12/22 07:47:09;;;;;;;4.60;2.85;;;;;;;-4.13;100.00;102451.13;6253801;28;20508;-75
2021/12/22 07:50:10;;;;;;;4.15;2.42;;;;;;;-4.06;100.00;102455.63;6247065;28;20518;-75
2021/12/22 07:53:12;;;;;;;9.45;2.42;;;;;;;-4.02;100.00;102456.63;6247604;28;20049;-75
2021/12/22 07:56:15;;;;;;;5.72;2.78;;;;;;;-3.99;100.00;102459.28;6249440;28;20072;-75
2021/12/22 07:59:16;;;;;;;5.55;2.72;;;;;;;-3.99;100.00;102455.03;6245041;28;20045;-75
2021/12/22 08:02:18;;;;;;;9.05;2.72;;;;;;;-3.95;100.00;102450.84;6243812;28;20045;-75
2021/12/22 08:05:19;;;;;;;3.00;2.22;;;;;;;-3.93;100.00;102450.09;6248779;28;20053;-76
2021/12/22 08:08:21;;;;;;;7.82;3.72;;;;;;;-3.92;100.00;102454.41;6246519;28;20041;-75
2021/12/22 08:11:23;;;;;;;7.03;3.28;;;;;;;-3.88;100.00;102456.25;6244631;28;20056;-75
2021/12/22 08:14:25;;;;;;;11.30;4.25;;;;;;;-3.88;100.00;102445.97;6251948;28;20422;-75
2021/12/22 08:17:28;;;;;;;5.15;3.15;;;;;;;-3.89;100.00;102454.50;6250561;28;20041;-73
2021/12/22 08:20:29;;;;;;;5.68;2.97;;;;;;;-3.85;100.00;102458.06;6247615;28;20124;-76
2021/12/22 08:23:31;;;;;;;7.03;3.50;;;;;;;-3.85;100.00;102458.06;6248528;28;20052;-75
2021/12/22 08:26:34;;;;;;;8.70;4.13;;;;;;;-3.83;100.00;102451.25;6246328;28;20052;-76
2021/12/22 08:29:41;;;;;;;5.35;2.33;;;;;;;-3.77;100.00;102453.16;6246968;28;20045;-75
2021/12/22 08:32:42;;;;;;;5.78;3.63;;;;;;;-3.80;100.00;102445.38;6247394;28;20042;-76
2021/12/22 08:39:04;;;;;;;3.63;1.77;;;;;;;-3.74;100.00;102445.56;6252324;28;20042;-75
2021/12/22 08:42:10;;;;;;;9.68;3.78;;;;;;;-3.76;100.00;102439.50;6248379;28;20421;-77
2021/12/22 08:45:13;;;;;;;6.07;3.03;;;;;;;-3.74;100.00;102441.28;6255965;28;20049;-77
2021/12/22 08:48:14;;;;;;;7.70;3.17;;;;;;;-3.67;100.00;102443.25;6246658;28;20057;-75
2021/12/22 08:51:15;;;;;;;5.18;3.47;;;;;;;-3.63;100.00;102439.09;6241632;28;20073;-75
2021/12/22 08:54:18;;;;;;;5.80;3.45;;;;;;;-3.65;100.00;102436.44;6245871;28;20066;-76
2021/12/22 08:57:20;;;;;;;6.88;3.85;;;;;;;-3.57;100.00;102426.41;6242110;28;20416;-75
2021/12/22 09:00:22;;;;;;;7.03;3.25;;;;;;;-3.61;100.00;102438.28;6240447;28;20042;-76
2021/12/22 09:03:23;;;;;;;4.15;2.83;;;;;;;-3.62;100.00;102433.97;6247667;28;20072;-76
2021/12/22 09:06:25;;;;;;;4.35;2.90;;;;;;;-3.61;100.00;102433.16;6243827;28;20045;-76
2021/12/22 09:09:26;;;;;;;5.07;2.53;;;;;;;-3.62;100.00;102435.69;6252582;28;20124;-77
2021/12/22 09:12:29;;;;;;;6.43;2.78;;;;;;;-3.53;100.00;102432.53;6250629;28;20438;-77
2021/12/22 09:15:31;;;;;;;5.35;2.35;;;;;;;-3.47;100.00;102425.88;6248661;28;20053;-75
2021/12/22 09:18:34;;;;;;;6.68;2.88;;;;;;;-3.50;100.00;102433.47;6247452;28;20511;-76
2021/12/22 09:21:36;;;;;;;6.60;2.50;;;;;;;-3.46;100.00;102425.03;6245165;28;20042;-77
2021/12/22 09:24:37;;;;;;;3.30;2.53;;;;;;;-3.43;100.00;102430.28;6243143;28;20422;-77
2021/12/22 09:27:40;;;;;;;4.07;2.45;;;;;;;-3.41;100.00;102432.91;6236384;28;20053;-76
2021/12/22 09:30:42;;;;;;;7.68;3.08;;;;;;;-3.41;100.00;102430.31;6244370;28;20045;-76
2021/12/22 09:33:44;;;;;;;3.55;2.17;;;;;;;-3.42;100.00;102432.03;6247285;28;20095;-76
2021/12/22 09:36:46;;;;;;;3.17;2.17;;;;;;;-3.37;100.00;102429.59;6246935;28;20053;-75
2021/12/22 09:39:47;;;;;;;9.32;4.15;;;;;;;-3.32;100.00;102438.31;6247178;28;20113;-75
2021/12/22 09:42:50;;;;;;;6.30;2.40;;;;;;;-3.35;100.00;102439.13;6247097;28;20049;-75
2021/12/22 09:46:00;;;;;;;5.45;2.83;;;;;;;-3.36;100.00;102442.53;6246869;28;20045;-75
2021/12/22 09:49:08;;;;;;;5.32;3.33;;;;;;;-3.32;100.00;102443.47;6247332;28;20049;-75
2021/12/22 09:52:18;;;;;;;7.63;3.83;;;;;;;-3.32;100.00;102446.03;6246624;28;20115;-75
2021/12/22 09:55:20;;;;;;;10.93;3.47;;;;;;;-3.26;100.00;102447.94;6247072;28;20056;-75
2021/12/22 09:58:23;;;;;;;9.00;2.28;;;;;;;-3.23;100.00;102445.44;6246573;28;20485;-75
2021/12/22 10:01:25;;;;;;;8.18;2.85;;;;;;;-3.24;100.00;102443.72;6246886;28;20049;-75
2021/12/22 10:04:28;;;;;;;6.32;4.47;;;;;;;-3.21;100.00;102438.69;6246657;28;20060;-75
2021/12/22 10:07:36;;;;;;;5.38;2.92;;;;;;;-3.22;100.00;102442.06;6246203;28;20041;-74
2021/12/22 10:10:40;;;;;;;4.30;1.83;;;;;;;-3.26;100.00;102437.66;6246404;28;20053;-75
2021/12/22 10:13:44;;;;;;;5.53;2.58;;;;;;;-3.26;100.00;102435.97;6246434;28;20056;-76
2021/12/22 10:16:48;;;;;;;6.20;2.55;;;;;;;-3.18;100.00;102442.22;6246540;28;20053;-75
2021/12/22 10:19:53;;;;;;;4.60;2.22;;;;;;;-3.14;100.00;102430.31;6244880;28;20049;-75
2021/12/22 10:22:54;;;;;;;8.48;3.30;;;;;;;-3.04;100.00;102432.34;6245898;28;20052;-75
2021/12/22 10:25:57;;;;;;;4.68;2.17;;;;;;;-3.03;100.00;102416.06;6246231;28;20057;-75
2021/12/22 10:29:02;;;;;;;10.07;3.03;;;;;;;-2.97;100.00;102413.69;6246204;28;20056;-75
2021/12/22 10:32:09;;;;;;;10.95;4.32;;;;;;;-2.91;100.00;102412.97;6245669;28;20076;-75
2021/12/22 10:35:10;;;;;;;6.18;3.65;;;;;;;-2.87;100.00;102413.09;6246182;28;20077;-75
2021/12/22 10:38:13;;;;;;;6.40;2.53;;;;;;;-2.86;100.00;102394.28;6246424;28;20045;-75
2021/12/22 10:41:15;;;;;;;12.23;3.60;;;;;;;-2.83;100.00;102396.06;6243046;28;20045;-75
2021/12/22 10:44:18;;;;;;;4.38;3.22;;;;;;;-2.87;100.00;102386.50;6246237;28;20093;-75
2021/12/22 10:47:34;;;;;;;5.47;3.40;;;;;;;-2.81;100.00;102390.16;6246067;28;20053;-73
2021/12/22 10:50:36;;;;;;;5.68;3.67;;;;;;;-2.74;100.00;102398.03;6221699;28;20049;-73
2021/12/22 10:53:43;;;;;;;6.90;3.60;;;;;;;-2.68;100.00;102404.22;6222124;28;20053;-75
2021/12/22 10:56:47;;;;;;;11.10;4.13;;;;;;;-2.62;100.00;102399.25;6221798;28;20045;-75
2021/12/22 10:59:50;;;;;;;5.78;3.53;;;;;;;-2.49;100.00;102400.44;6221021;28;20053;-75
2021/12/22 11:03:02;;;;;;;8.05;2.95;;;;;;;-2.42;100.00;102402.34;6221095;28;20053;-74
2021/12/22 11:06:12;;;;;;;6.78;3.08;;;;;;;-2.31;100.00;102397.50;6245512;28;20041;-75
2021/12/22 11:09:15;;;;;;;9.55;2.58;;;;;;;-2.22;100.00;102402.88;6245862;28;20386;-74
2021/12/22 11:12:17;;;;;;;5.07;2.67;;;;;;;-2.17;100.00;102400.41;6245704;28;20131;-74
2021/12/22 11:15:23;;;;;;;13.95;3.80;;;;;;;-2.20;100.00;102392.59;6245510;28;20042;-74
2021/12/22 11:18:26;;;;;;;5.40;2.85;;;;;;;-2.17;100.00;102390.13;6247237;28;20091;-74
2021/12/22 11:21:31;;;;;;;9.98;3.70;;;;;;;-2.13;100.00;102384.22;6246389;28;20045;-75
2021/12/22 11:24:36;;;;;;;5.60;2.78;;;;;;;-2.06;100.00;102389.53;6249816;28;20056;-74
2021/12/22 11:27:38;;;;;;;7.07;2.55;;;;;;;-2.01;100.00;102386.22;6247565;28;20049;-75
2021/12/22 11:30:41;;;;;;;6.20;3.15;;;;;;;-1.95;100.00;102381.19;6249490;28;20496;-74
2021/12/22 11:33:46;;;;;;;5.97;3.90;;;;;;;-1.89;100.00;102381.38;6248845;28;20047;-74
2021/12/22 11:36:51;;;;;;;4.13;2.70;;;;;;;-1.84;100.00;102375.47;6258290;28;20057;-75
2021/12/22 11:39:53;;;;;;;8.02;2.60;;;;;;;-1.79;100.00;102378.16;6255346;28;20141;-74
2021/12/22 11:42:54;;;;;;;4.38;2.80;;;;;;;-1.78;100.00;102372.16;6249358;28;20456;-74
2021/12/22 11:45:57;;;;;;;4.82;2.60;;;;;;;-1.74;100.00;102373.13;6249171;28;20049;-74
2021/12/22 11:48:59;;;;;;;6.95;4.03;;;;;;;-1.72;100.00;102364.59;6248562;28;20049;-74
2021/12/22 11:52:00;;;;;;;9.70;4.00;;;;;;;-1.70;100.00;102357.75;6248484;28;20500;-74
2021/12/22 11:55:15;;;;;;;6.93;2.97;;;;;;;-1.65;100.00;102357.88;6247649;28;20049;-74
2021/12/22 11:58:21;;;;;;;8.07;4.43;;;;;;;-1.60;100.00;102359.72;6249509;28;20042;-75
2021/12/22 12:01:24;;;;;;;5.30;3.03;;;;;;;-1.57;100.00;102346.03;6249739;28;20061;-74
2021/12/22 12:04:34;;;;;;;4.78;2.83;;;;;;;-1.50;100.00;102350.47;6249381;28;20053;-74
2021/12/22 12:07:49;;;;;;;7.82;3.42;;;;;;;-1.44;100.00;102344.59;6249648;28;20053;-73
2021/12/22 12:10:54;;;;;;;9.32;3.75;;;;;;;-1.37;100.00;102331.84;6249098;28;20057;-74
2021/12/22 12:14:01;;;;;;;5.75;2.95;;;;;;;-1.31;100.00;102331.13;6249446;28;20053;-74
2021/12/22 12:23:50;;;;;;;4.78;3.00;;;;;;;-1.10;100.00;102322.94;6342895;28;20056;-75
2021/12/22 12:26:51;;;;;;;6.20;3.53;;;;;;;-1.05;100.00;102326.47;6342886;28;20442;-74
2021/12/22 12:29:56;;;;;;;7.10;3.33;;;;;;;-1.07;100.00;102317.84;6342816;28;20056;-75
2021/12/22 12:33:06;;;;;;;8.65;2.95;;;;;;;-1.11;100.00;102324.66;6342921;28;20499;-74
2021/12/22 12:36:12;;;;;;;6.50;3.72;;;;;;;-1.12;100.00;102322.06;6342879;28;20135;-74
2021/12/22 12:39:13;;;;;;;9.00;3.53;;;;;;;-1.18;100.00;102322.81;6343107;28;20040;-74
2021/12/22 12:42:15;;;;;;;9.65;3.90;;;;;;;-1.19;100.00;102312.44;6342478;28;20138;-74
2021/12/22 12:45:43;;;;;;;5.75;2.35;;;;;;;-1.17;100.00;102305.63;6330673;28;20079;-74
2021/12/22 12:48:46;;;;;;;6.22;3.45;;;;;;;-1.17;100.00;102297.88;6331988;28;20044;-76
2021/12/22 12:51:58;;;;;;;5.00;2.65;;;;;;;-1.18;100.00;102297.03;6326110;28;20044;-75
2021/12/22 12:55:16;;;;;;;7.05;3.30;;;;;;;-1.14;100.00;102300.50;6338429;28;20499;-75
2021/12/22 12:58:27;;;;;;;5.97;3.10;;;;;;;-1.16;100.00;102294.47;6341698;28;20051;-75
2021/12/22 13:01:58;;;;;;;6.95;3.30;;;;;;;-1.17;100.00;102292.72;6332344;28;20044;-75
2021/12/22 13:05:02;;;;;;;5.38;3.22;;;;;;;-1.17;100.00;102290.16;6339097;28;20059;-76
2021/12/22 13:08:08;;;;;;;5.05;2.58;;;;;;;-1.16;100.00;102282.44;6325250;28;20097;-74
2021/12/22 13:11:12;;;;;;;5.03;3.10;;;;;;;-1.14;100.00;102274.72;6316692;28;20056;-74
2021/12/22 13:17:49;;;;;;;8.60;2.90;;;;;;;-1.11;100.00;102255.00;6341746;28;20047;-74
2021/12/22 13:20:51;;;;;;;5.88;2.92;;;;;;;-1.11;100.00;102261.88;6341295;28;20495;-75
2021/12/22 13:23:54;;;;;;;16.25;4.00;;;;;;;-1.13;100.00;102256.72;6335566;28;20059;-75
2021/12/22 13:26:55;;;;;;;6.32;3.15;;;;;;;-1.11;100.00;102264.47;6334543;28;20424;-76
2021/12/22 13:30:08;;;;;;;5.00;3.20;;;;;;;-1.13;100.00;102261.00;6335802;28;20048;-76
2021/12/22 13:33:12;;;;;;;7.25;3.30;;;;;;;-1.11;100.00;102261.88;6324968;28;20044;-76
2021/12/22 13:36:16;;;;;;;4.97;2.70;;;;;;;-1.14;100.00;102257.53;6314971;28;20048;-75
2021/12/22 13:39:19;;;;;;;6.30;3.85;;;;;;;-1.16;100.00;102253.19;6324751;28;20039;-76
2021/12/22 13:42:20;;;;;;;7.40;3.97;;;;;;;-1.18;100.00;102253.19;6321396;28;20051;-75
2021/12/22 13:45:21;;;;;;;8.05;4.45;;;;;;;-1.14;100.00;102241.19;6312110;28;20055;-76
2021/12/22 13:48:25;;;;;;;7.05;3.47;;;;;;;-1.13;100.00;102232.63;6323996;28;20059;-76
2021/12/22 13:51:28;;;;;;;6.30;2.83;;;;;;;-1.17;100.00;102238.56;6317413;28;20055;-76
2021/12/22 13:54:32;;;;;;;5.65;3.50;;;;;;;-1.21;100.00;102232.47;6314964;28;20040;-75
2021/12/22 13:57:34;;;;;;;6.72;3.63;;;;;;;-1.18;100.00;102229.97;6311088;28;20090;-76
2021/12/22 14:00:36;;;;;;;3.80;2.50;;;;;;;-1.19;100.00;102225.63;6308657;28;20388;-76
2021/12/22 14:03:37;;;;;;;7.13;3.97;;;;;;;-1.20;100.00;102239.38;6306099;28;20044;-75
2021/12/22 14:06:42;;;;;;;7.55;3.45;;;;;;;-1.20;100.00;102221.31;6310281;28;20048;-76
2021/12/22 14:09:48;;;;;;;3.53;2.55;;;;;;;-1.20;100.00;102223.88;6308207;28;20041;-76
2021/12/22 14:12:58;;;;;;;7.25;3.22;;;;;;;-1.22;100.00;102222.13;6310362;28;20052;-75
2021/12/22 14:15:59;;;;;;;8.02;4.32;;;;;;;-1.27;100.00;102224.63;6310859;28;20093;-76
2021/12/22 14:19:01;;;;;;;7.20;3.45;;;;;;;-1.31;100.00;102218.53;6308143;28;20055;-76